sensor_id;sensor_type;location;lat;lon;timestamp;P1;durP1;ratioP1;P2;durP2;ratioP2
78581;SDS011;67878;46.242;5.974;2023-07-31T00:01:20;1.30;;;0.80;;
78581;SDS011;67878;46.242;5.974;2023-07-31T00:03:45;1.42;;;1.10;;
78581;SDS011;67878;46.242;5.974;2023-07-31T00:06:11;1.42;;;0.90;;
78581;SDS011;67878;46.242;5.974;2023-07-31T00:08:37;1.92;;;1.00;;
78581;SDS011;67878;46.242;5.974;2023-07-31T00:11:02;1.85;;;1.05;;
78581;SDS011;67878;46.242;5.974;2023-07-31T00:13:28;2.22;;;1.10;;
78581;SDS011;67878;46.242;5.974;2023-07-31T00:15:53;1.95;;;1.00;;
78581;SDS011;67878;46.242;5.974;2023-07-31T00:18:18;2.05;;;1.02;;
78581;SDS011;67878;46.242;5.974;2023-07-31T00:20:44;1.08;;;0.80;;
78581;SDS011;67878;46.242;5.974;2023-07-31T00:23:09;1.35;;;1.10;;
78581;SDS011;67878;46.242;5.974;2023-07-31T00:25:34;1.90;;;1.13;;
78581;SDS011;67878;46.242;5.974;2023-07-31T00:28:00;1.70;;;0.90;;
78581;SDS011;67878;46.242;5.974;2023-07-31T00:30:25;2.40;;;1.05;;
78581;SDS011;67878;46.242;5.974;2023-07-31T00:32:52;2.35;;;0.93;;
78581;SDS011;67878;46.242;5.974;2023-07-31T00:35:17;1.33;;;1.00;;
78581;SDS011;67878;46.242;5.974;2023-07-31T00:37:42;1.80;;;0.80;;
78581;SDS011;67878;46.242;5.974;2023-07-31T00:40:08;1.23;;;0.82;;
78581;SDS011;67878;46.242;5.974;2023-07-31T00:42:33;1.67;;;1.00;;
78581;SDS011;67878;46.242;5.974;2023-07-31T00:44:59;1.80;;;1.00;;
78581;SDS011;67878;46.242;5.974;2023-07-31T00:47:24;1.80;;;0.93;;
78581;SDS011;67878;46.242;5.974;2023-07-31T00:49:50;2.22;;;1.38;;
78581;SDS011;67878;46.242;5.974;2023-07-31T00:52:16;1.83;;;1.10;;
78581;SDS011;67878;46.242;5.974;2023-07-31T00:54:42;1.45;;;0.98;;
78581;SDS011;67878;46.242;5.974;2023-07-31T00:57:07;1.08;;;0.90;;
78581;SDS011;67878;46.242;5.974;2023-07-31T00:59:33;1.45;;;0.90;;
78581;SDS011;67878;46.242;5.974;2023-07-31T01:01:59;2.35;;;1.00;;
78581;SDS011;67878;46.242;5.974;2023-07-31T01:04:24;1.30;;;0.90;;
78581;SDS011;67878;46.242;5.974;2023-07-31T01:07:00;1.48;;;0.93;;
78581;SDS011;67878;46.242;5.974;2023-07-31T01:09:39;1.00;;;0.82;;
78581;SDS011;67878;46.242;5.974;2023-07-31T01:12:09;1.27;;;1.08;;
78581;SDS011;67878;46.242;5.974;2023-07-31T01:14:50;1.17;;;0.85;;
78581;SDS011;67878;46.242;5.974;2023-07-31T01:17:16;1.52;;;1.10;;
78581;SDS011;67878;46.242;5.974;2023-07-31T01:19:41;1.88;;;0.90;;
78581;SDS011;67878;46.242;5.974;2023-07-31T01:24:36;2.20;;;1.20;;
78581;SDS011;67878;46.242;5.974;2023-07-31T01:27:14;0.93;;;0.80;;
78581;SDS011;67878;46.242;5.974;2023-07-31T01:29:43;1.33;;;0.82;;
78581;SDS011;67878;46.242;5.974;2023-07-31T01:32:24;1.58;;;0.80;;
78581;SDS011;67878;46.242;5.974;2023-07-31T01:34:50;2.33;;;1.10;;
78581;SDS011;67878;46.242;5.974;2023-07-31T01:37:16;2.58;;;0.80;;
78581;SDS011;67878;46.242;5.974;2023-07-31T01:39:41;2.15;;;0.90;;
78581;SDS011;67878;46.242;5.974;2023-07-31T01:42:07;1.30;;;0.73;;
78581;SDS011;67878;46.242;5.974;2023-07-31T01:44:32;1.88;;;0.95;;
78581;SDS011;67878;46.242;5.974;2023-07-31T01:46:58;1.20;;;0.90;;
78581;SDS011;67878;46.242;5.974;2023-07-31T01:49:25;1.38;;;1.00;;
78581;SDS011;67878;46.242;5.974;2023-07-31T01:51:50;1.15;;;0.90;;
78581;SDS011;67878;46.242;5.974;2023-07-31T01:54:16;1.77;;;0.80;;
78581;SDS011;67878;46.242;5.974;2023-07-31T01:56:42;1.40;;;1.00;;
78581;SDS011;67878;46.242;5.974;2023-07-31T01:59:07;1.15;;;0.85;;
78581;SDS011;67878;46.242;5.974;2023-07-31T02:01:32;1.33;;;0.90;;
78581;SDS011;67878;46.242;5.974;2023-07-31T02:03:58;2.08;;;1.02;;
78581;SDS011;67878;46.242;5.974;2023-07-31T02:06:23;1.48;;;0.90;;
78581;SDS011;67878;46.242;5.974;2023-07-31T02:08:49;2.08;;;1.05;;
78581;SDS011;67878;46.242;5.974;2023-07-31T02:11:14;3.42;;;1.00;;
78581;SDS011;67878;46.242;5.974;2023-07-31T02:13:40;1.77;;;0.90;;
78581;SDS011;67878;46.242;5.974;2023-07-31T02:16:05;1.45;;;0.85;;
78581;SDS011;67878;46.242;5.974;2023-07-31T02:18:30;1.10;;;0.90;;
78581;SDS011;67878;46.242;5.974;2023-07-31T02:20:56;1.00;;;0.75;;
78581;SDS011;67878;46.242;5.974;2023-07-31T02:23:21;2.58;;;1.00;;
78581;SDS011;67878;46.242;5.974;2023-07-31T02:25:46;1.40;;;0.90;;
78581;SDS011;67878;46.242;5.974;2023-07-31T02:28:12;1.83;;;0.90;;
78581;SDS011;67878;46.242;5.974;2023-07-31T02:30:37;1.40;;;0.90;;
78581;SDS011;67878;46.242;5.974;2023-07-31T02:33:03;1.40;;;0.90;;
78581;SDS011;67878;46.242;5.974;2023-07-31T02:35:29;1.67;;;0.90;;
78581;SDS011;67878;46.242;5.974;2023-07-31T02:37:55;1.40;;;0.80;;
78581;SDS011;67878;46.242;5.974;2023-07-31T02:40:20;1.80;;;1.02;;
78581;SDS011;67878;46.242;5.974;2023-07-31T02:42:45;1.00;;;0.90;;
78581;SDS011;67878;46.242;5.974;2023-07-31T02:45:11;1.83;;;0.85;;
78581;SDS011;67878;46.242;5.974;2023-07-31T02:47:36;1.42;;;0.90;;
78581;SDS011;67878;46.242;5.974;2023-07-31T02:50:02;1.27;;;0.80;;
78581;SDS011;67878;46.242;5.974;2023-07-31T02:52:28;2.63;;;0.88;;
78581;SDS011;67878;46.242;5.974;2023-07-31T02:54:53;1.52;;;0.90;;
78581;SDS011;67878;46.242;5.974;2023-07-31T02:57:19;1.13;;;0.90;;
78581;SDS011;67878;46.242;5.974;2023-07-31T02:59:44;1.38;;;0.77;;
78581;SDS011;67878;46.242;5.974;2023-07-31T03:02:10;1.38;;;0.90;;
78581;SDS011;67878;46.242;5.974;2023-07-31T03:04:36;2.30;;;1.00;;
78581;SDS011;67878;46.242;5.974;2023-07-31T03:07:01;0.88;;;0.77;;
78581;SDS011;67878;46.242;5.974;2023-07-31T03:09:27;1.45;;;0.80;;
78581;SDS011;67878;46.242;5.974;2023-07-31T03:11:52;1.75;;;0.90;;
78581;SDS011;67878;46.242;5.974;2023-07-31T03:14:18;4.72;;;1.00;;
78581;SDS011;67878;46.242;5.974;2023-07-31T03:16:43;1.30;;;0.80;;
78581;SDS011;67878;46.242;5.974;2023-07-31T03:19:08;2.05;;;1.05;;
78581;SDS011;67878;46.242;5.974;2023-07-31T03:21:34;1.00;;;0.73;;
78581;SDS011;67878;46.242;5.974;2023-07-31T03:23:59;1.88;;;0.80;;
78581;SDS011;67878;46.242;5.974;2023-07-31T03:26:25;1.67;;;0.80;;
78581;SDS011;67878;46.242;5.974;2023-07-31T03:28:50;5.03;;;1.00;;
78581;SDS011;67878;46.242;5.974;2023-07-31T03:31:15;1.30;;;0.93;;
78581;SDS011;67878;46.242;5.974;2023-07-31T03:33:41;1.05;;;0.90;;
78581;SDS011;67878;46.242;5.974;2023-07-31T03:36:06;1.17;;;1.00;;
78581;SDS011;67878;46.242;5.974;2023-07-31T03:38:33;2.13;;;1.00;;
78581;SDS011;67878;46.242;5.974;2023-07-31T03:40:59;1.90;;;1.05;;
78581;SDS011;67878;46.242;5.974;2023-07-31T03:43:24;1.70;;;1.10;;
78581;SDS011;67878;46.242;5.974;2023-07-31T03:45:50;1.20;;;0.80;;
78581;SDS011;67878;46.242;5.974;2023-07-31T03:48:15;1.52;;;1.00;;
78581;SDS011;67878;46.242;5.974;2023-07-31T03:50:41;1.55;;;0.75;;
78581;SDS011;67878;46.242;5.974;2023-07-31T03:53:07;3.10;;;0.88;;
78581;SDS011;67878;46.242;5.974;2023-07-31T03:55:32;1.38;;;0.80;;
78581;SDS011;67878;46.242;5.974;2023-07-31T03:57:57;0.80;;;0.70;;
78581;SDS011;67878;46.242;5.974;2023-07-31T04:00:23;1.33;;;0.70;;
78581;SDS011;67878;46.242;5.974;2023-07-31T04:05:16;1.97;;;0.90;;
78581;SDS011;67878;46.242;5.974;2023-07-31T04:07:42;1.02;;;0.80;;
78581;SDS011;67878;46.242;5.974;2023-07-31T04:10:07;1.90;;;0.88;;
78581;SDS011;67878;46.242;5.974;2023-07-31T04:12:33;3.13;;;1.00;;
78581;SDS011;67878;46.242;5.974;2023-07-31T04:14:58;1.92;;;1.10;;
78581;SDS011;67878;46.242;5.974;2023-07-31T04:17:23;2.03;;;1.10;;
78581;SDS011;67878;46.242;5.974;2023-07-31T04:19:49;2.22;;;1.10;;
78581;SDS011;67878;46.242;5.974;2023-07-31T04:22:14;2.10;;;0.90;;
78581;SDS011;67878;46.242;5.974;2023-07-31T04:24:39;1.15;;;0.80;;
78581;SDS011;67878;46.242;5.974;2023-07-31T04:27:05;1.38;;;0.95;;
78581;SDS011;67878;46.242;5.974;2023-07-31T04:29:31;0.90;;;0.80;;
78581;SDS011;67878;46.242;5.974;2023-07-31T04:31:56;1.80;;;1.30;;
78581;SDS011;67878;46.242;5.974;2023-07-31T04:34:21;1.17;;;0.85;;
78581;SDS011;67878;46.242;5.974;2023-07-31T04:36:47;1.40;;;1.00;;
78581;SDS011;67878;46.242;5.974;2023-07-31T04:39:12;1.83;;;1.23;;
78581;SDS011;67878;46.242;5.974;2023-07-31T04:41:37;1.67;;;0.80;;
78581;SDS011;67878;46.242;5.974;2023-07-31T04:44:03;1.27;;;0.90;;
78581;SDS011;67878;46.242;5.974;2023-07-31T04:46:29;1.10;;;0.80;;
78581;SDS011;67878;46.242;5.974;2023-07-31T04:48:54;1.13;;;0.80;;
78581;SDS011;67878;46.242;5.974;2023-07-31T04:51:20;1.15;;;0.70;;
78581;SDS011;67878;46.242;5.974;2023-07-31T04:53:46;1.27;;;0.80;;
78581;SDS011;67878;46.242;5.974;2023-07-31T04:56:11;1.42;;;1.00;;
78581;SDS011;67878;46.242;5.974;2023-07-31T04:58:37;1.77;;;0.95;;
78581;SDS011;67878;46.242;5.974;2023-07-31T05:01:02;1.08;;;0.80;;
78581;SDS011;67878;46.242;5.974;2023-07-31T05:03:28;1.35;;;0.80;;
78581;SDS011;67878;46.242;5.974;2023-07-31T05:05:53;1.33;;;0.80;;
78581;SDS011;67878;46.242;5.974;2023-07-31T05:08:18;1.23;;;0.85;;
78581;SDS011;67878;46.242;5.974;2023-07-31T05:10:44;1.50;;;0.73;;
78581;SDS011;67878;46.242;5.974;2023-07-31T05:13:09;1.40;;;1.02;;
78581;SDS011;67878;46.242;5.974;2023-07-31T05:15:34;0.82;;;0.70;;
78581;SDS011;67878;46.242;5.974;2023-07-31T05:18:00;1.60;;;1.00;;
78581;SDS011;67878;46.242;5.974;2023-07-31T05:20:25;1.20;;;1.00;;
78581;SDS011;67878;46.242;5.974;2023-07-31T05:22:51;1.20;;;0.80;;
78581;SDS011;67878;46.242;5.974;2023-07-31T05:25:16;1.63;;;0.98;;
78581;SDS011;67878;46.242;5.974;2023-07-31T05:27:42;1.20;;;1.00;;
78581;SDS011;67878;46.242;5.974;2023-07-31T05:30:07;1.50;;;1.02;;
78581;SDS011;67878;46.242;5.974;2023-07-31T05:32:33;1.50;;;1.00;;
78581;SDS011;67878;46.242;5.974;2023-07-31T05:34:58;1.10;;;0.90;;
78581;SDS011;67878;46.242;5.974;2023-07-31T05:37:24;1.92;;;1.00;;
78581;SDS011;67878;46.242;5.974;2023-07-31T05:39:49;2.25;;;1.00;;
78581;SDS011;67878;46.242;5.974;2023-07-31T05:42:14;1.65;;;1.00;;
78581;SDS011;67878;46.242;5.974;2023-07-31T05:44:40;2.13;;;0.80;;
78581;SDS011;67878;46.242;5.974;2023-07-31T05:47:05;1.20;;;0.95;;
78581;SDS011;67878;46.242;5.974;2023-07-31T05:49:31;2.13;;;1.00;;
78581;SDS011;67878;46.242;5.974;2023-07-31T05:51:56;1.27;;;0.88;;
78581;SDS011;67878;46.242;5.974;2023-07-31T05:54:22;1.13;;;1.00;;
78581;SDS011;67878;46.242;5.974;2023-07-31T05:56:48;1.95;;;1.00;;
78581;SDS011;67878;46.242;5.974;2023-07-31T05:59:15;1.38;;;0.93;;
78581;SDS011;67878;46.242;5.974;2023-07-31T06:01:41;1.38;;;0.90;;
78581;SDS011;67878;46.242;5.974;2023-07-31T06:04:07;2.63;;;0.90;;
78581;SDS011;67878;46.242;5.974;2023-07-31T06:06:32;1.20;;;1.00;;
78581;SDS011;67878;46.242;5.974;2023-07-31T06:08:58;4.15;;;1.10;;
78581;SDS011;67878;46.242;5.974;2023-07-31T06:11:23;1.13;;;0.80;;
78581;SDS011;67878;46.242;5.974;2023-07-31T06:13:48;2.13;;;1.17;;
78581;SDS011;67878;46.242;5.974;2023-07-31T06:16:15;2.05;;;1.23;;
78581;SDS011;67878;46.242;5.974;2023-07-31T06:18:40;2.08;;;1.02;;
78581;SDS011;67878;46.242;5.974;2023-07-31T06:21:06;1.98;;;1.10;;
78581;SDS011;67878;46.242;5.974;2023-07-31T06:23:32;2.70;;;1.15;;
78581;SDS011;67878;46.242;5.974;2023-07-31T06:25:57;1.63;;;0.82;;
78581;SDS011;67878;46.242;5.974;2023-07-31T06:28:29;1.33;;;0.90;;
78581;SDS011;67878;46.242;5.974;2023-07-31T06:30:55;1.35;;;0.93;;
78581;SDS011;67878;46.242;5.974;2023-07-31T06:33:20;2.83;;;1.08;;
78581;SDS011;67878;46.242;5.974;2023-07-31T06:35:46;1.20;;;0.90;;
78581;SDS011;67878;46.242;5.974;2023-07-31T06:38:11;1.13;;;1.00;;
78581;SDS011;67878;46.242;5.974;2023-07-31T06:40:36;2.95;;;1.15;;
78581;SDS011;67878;46.242;5.974;2023-07-31T06:43:02;2.65;;;1.08;;
78581;SDS011;67878;46.242;5.974;2023-07-31T06:45:33;2.22;;;0.85;;
78581;SDS011;67878;46.242;5.974;2023-07-31T06:47:59;1.45;;;1.08;;
78581;SDS011;67878;46.242;5.974;2023-07-31T06:50:26;2.25;;;0.90;;
78581;SDS011;67878;46.242;5.974;2023-07-31T06:52:52;2.42;;;0.93;;
78581;SDS011;67878;46.242;5.974;2023-07-31T06:55:19;1.73;;;1.00;;
78581;SDS011;67878;46.242;5.974;2023-07-31T06:57:45;1.73;;;1.02;;
78581;SDS011;67878;46.242;5.974;2023-07-31T07:00:11;1.30;;;0.80;;
78581;SDS011;67878;46.242;5.974;2023-07-31T07:02:37;2.92;;;1.08;;
78581;SDS011;67878;46.242;5.974;2023-07-31T07:05:03;2.38;;;0.90;;
78581;SDS011;67878;46.242;5.974;2023-07-31T07:07:28;1.95;;;1.25;;
78581;SDS011;67878;46.242;5.974;2023-07-31T07:09:54;2.83;;;1.42;;
78581;SDS011;67878;46.242;5.974;2023-07-31T07:12:19;5.57;;;1.73;;
78581;SDS011;67878;46.242;5.974;2023-07-31T07:14:44;3.17;;;1.33;;
78581;SDS011;67878;46.242;5.974;2023-07-31T07:17:12;3.85;;;1.30;;
78581;SDS011;67878;46.242;5.974;2023-07-31T07:19:40;4.45;;;1.45;;
78581;SDS011;67878;46.242;5.974;2023-07-31T07:22:05;3.53;;;1.20;;
78581;SDS011;67878;46.242;5.974;2023-07-31T07:24:31;5.25;;;1.30;;
78581;SDS011;67878;46.242;5.974;2023-07-31T07:26:58;3.10;;;1.40;;
78581;SDS011;67878;46.242;5.974;2023-07-31T07:29:24;3.50;;;1.40;;
78581;SDS011;67878;46.242;5.974;2023-07-31T07:31:49;2.25;;;1.15;;
78581;SDS011;67878;46.242;5.974;2023-07-31T07:34:14;2.50;;;1.20;;
78581;SDS011;67878;46.242;5.974;2023-07-31T07:36:40;4.03;;;1.60;;
78581;SDS011;67878;46.242;5.974;2023-07-31T07:39:05;3.47;;;1.33;;
78581;SDS011;67878;46.242;5.974;2023-07-31T07:41:30;5.47;;;1.20;;
78581;SDS011;67878;46.242;5.974;2023-07-31T07:43:56;2.35;;;1.27;;
78581;SDS011;67878;46.242;5.974;2023-07-31T07:46:22;2.60;;;1.27;;
78581;SDS011;67878;46.242;5.974;2023-07-31T07:48:48;3.63;;;1.45;;
78581;SDS011;67878;46.242;5.974;2023-07-31T07:51:13;3.88;;;1.40;;
78581;SDS011;67878;46.242;5.974;2023-07-31T07:53:38;4.40;;;1.10;;
78581;SDS011;67878;46.242;5.974;2023-07-31T07:56:04;1.92;;;1.20;;
78581;SDS011;67878;46.242;5.974;2023-07-31T07:58:29;3.13;;;1.30;;
78581;SDS011;67878;46.242;5.974;2023-07-31T08:00:54;2.08;;;1.15;;
78581;SDS011;67878;46.242;5.974;2023-07-31T08:03:20;3.60;;;1.20;;
78581;SDS011;67878;46.242;5.974;2023-07-31T08:05:45;3.90;;;1.23;;
78581;SDS011;67878;46.242;5.974;2023-07-31T08:08:16;3.08;;;1.13;;
78581;SDS011;67878;46.242;5.974;2023-07-31T08:10:42;2.78;;;1.02;;
78581;SDS011;67878;46.242;5.974;2023-07-31T08:13:09;2.97;;;1.15;;
78581;SDS011;67878;46.242;5.974;2023-07-31T08:15:36;3.63;;;1.30;;
78581;SDS011;67878;46.242;5.974;2023-07-31T08:18:01;3.50;;;1.48;;
78581;SDS011;67878;46.242;5.974;2023-07-31T08:20:26;2.15;;;1.20;;
78581;SDS011;67878;46.242;5.974;2023-07-31T08:22:52;1.73;;;1.02;;
78581;SDS011;67878;46.242;5.974;2023-07-31T08:25:18;2.70;;;1.33;;
78581;SDS011;67878;46.242;5.974;2023-07-31T08:27:43;2.47;;;1.10;;
78581;SDS011;67878;46.242;5.974;2023-07-31T08:30:09;2.30;;;1.30;;
78581;SDS011;67878;46.242;5.974;2023-07-31T08:32:36;2.40;;;1.13;;
78581;SDS011;67878;46.242;5.974;2023-07-31T08:35:01;2.67;;;1.35;;
78581;SDS011;67878;46.242;5.974;2023-07-31T08:37:27;2.25;;;1.13;;
78581;SDS011;67878;46.242;5.974;2023-07-31T08:39:52;2.75;;;1.15;;
78581;SDS011;67878;46.242;5.974;2023-07-31T08:42:19;3.92;;;1.17;;
78581;SDS011;67878;46.242;5.974;2023-07-31T08:44:45;2.15;;;1.00;;
78581;SDS011;67878;46.242;5.974;2023-07-31T08:47:11;2.90;;;1.20;;
78581;SDS011;67878;46.242;5.974;2023-07-31T08:49:37;2.47;;;1.02;;
78581;SDS011;67878;46.242;5.974;2023-07-31T08:52:03;2.58;;;1.33;;
78581;SDS011;67878;46.242;5.974;2023-07-31T08:54:29;2.95;;;1.00;;
78581;SDS011;67878;46.242;5.974;2023-07-31T08:56:56;1.52;;;0.90;;
78581;SDS011;67878;46.242;5.974;2023-07-31T08:59:23;2.63;;;1.17;;
78581;SDS011;67878;46.242;5.974;2023-07-31T09:01:49;2.90;;;1.13;;
78581;SDS011;67878;46.242;5.974;2023-07-31T09:04:16;2.55;;;1.05;;
78581;SDS011;67878;46.242;5.974;2023-07-31T09:06:44;4.05;;;1.30;;
78581;SDS011;67878;46.242;5.974;2023-07-31T09:09:10;3.03;;;1.20;;
78581;SDS011;67878;46.242;5.974;2023-07-31T09:11:35;3.00;;;1.08;;
78581;SDS011;67878;46.242;5.974;2023-07-31T09:14:01;2.72;;;1.33;;
78581;SDS011;67878;46.242;5.974;2023-07-31T09:16:33;2.10;;;1.10;;
78581;SDS011;67878;46.242;5.974;2023-07-31T09:18:59;3.67;;;1.08;;
78581;SDS011;67878;46.242;5.974;2023-07-31T09:21:26;1.23;;;0.90;;
78581;SDS011;67878;46.242;5.974;2023-07-31T09:23:53;2.30;;;1.08;;
78581;SDS011;67878;46.242;5.974;2023-07-31T09:26:32;3.97;;;0.90;;
78581;SDS011;67878;46.242;5.974;2023-07-31T09:28:59;1.92;;;1.05;;
78581;SDS011;67878;46.242;5.974;2023-07-31T09:31:32;2.25;;;1.00;;
78581;SDS011;67878;46.242;5.974;2023-07-31T09:33:58;3.28;;;1.27;;
78581;SDS011;67878;46.242;5.974;2023-07-31T09:36:25;2.13;;;0.90;;
78581;SDS011;67878;46.242;5.974;2023-07-31T09:38:54;3.10;;;1.58;;
78581;SDS011;67878;46.242;5.974;2023-07-31T09:41:19;2.42;;;1.17;;
78581;SDS011;67878;46.242;5.974;2023-07-31T09:43:52;5.50;;;1.10;;
78581;SDS011;67878;46.242;5.974;2023-07-31T09:46:18;1.90;;;1.10;;
78581;SDS011;67878;46.242;5.974;2023-07-31T09:48:45;2.78;;;1.10;;
78581;SDS011;67878;46.242;5.974;2023-07-31T09:51:11;2.65;;;1.15;;
78581;SDS011;67878;46.242;5.974;2023-07-31T09:53:37;2.25;;;1.08;;
78581;SDS011;67878;46.242;5.974;2023-07-31T09:56:02;4.88;;;1.08;;
78581;SDS011;67878;46.242;5.974;2023-07-31T09:58:29;2.08;;;1.00;;
78581;SDS011;67878;46.242;5.974;2023-07-31T10:00:55;2.55;;;1.08;;
78581;SDS011;67878;46.242;5.974;2023-07-31T10:03:22;1.95;;;1.00;;
78581;SDS011;67878;46.242;5.974;2023-07-31T10:05:52;1.75;;;1.02;;
78581;SDS011;67878;46.242;5.974;2023-07-31T10:08:19;1.45;;;1.08;;
78581;SDS011;67878;46.242;5.974;2023-07-31T10:10:46;2.85;;;1.20;;
78581;SDS011;67878;46.242;5.974;2023-07-31T10:13:12;1.63;;;1.00;;
78581;SDS011;67878;46.242;5.974;2023-07-31T10:15:40;2.08;;;1.42;;
78581;SDS011;67878;46.242;5.974;2023-07-31T10:18:09;1.63;;;1.00;;
78581;SDS011;67878;46.242;5.974;2023-07-31T10:20:39;2.25;;;1.10;;
78581;SDS011;67878;46.242;5.974;2023-07-31T10:23:08;1.42;;;0.93;;
78581;SDS011;67878;46.242;5.974;2023-07-31T10:25:37;1.75;;;0.90;;
78581;SDS011;67878;46.242;5.974;2023-07-31T10:28:05;1.60;;;1.02;;
78581;SDS011;67878;46.242;5.974;2023-07-31T10:30:34;1.60;;;1.00;;
78581;SDS011;67878;46.242;5.974;2023-07-31T10:33:04;2.45;;;1.08;;
78581;SDS011;67878;46.242;5.974;2023-07-31T10:35:41;3.20;;;1.20;;
78581;SDS011;67878;46.242;5.974;2023-07-31T10:38:15;1.23;;;0.90;;
78581;SDS011;67878;46.242;5.974;2023-07-31T10:40:42;3.45;;;1.10;;
78581;SDS011;67878;46.242;5.974;2023-07-31T10:43:07;2.17;;;1.13;;
78581;SDS011;67878;46.242;5.974;2023-07-31T10:45:39;2.55;;;1.00;;
78581;SDS011;67878;46.242;5.974;2023-07-31T10:48:14;4.15;;;1.20;;
78581;SDS011;67878;46.242;5.974;2023-07-31T10:50:48;2.67;;;1.00;;
78581;SDS011;67878;46.242;5.974;2023-07-31T10:53:24;1.88;;;1.10;;
78581;SDS011;67878;46.242;5.974;2023-07-31T10:55:50;2.92;;;1.33;;
78581;SDS011;67878;46.242;5.974;2023-07-31T10:58:19;3.47;;;1.58;;
78581;SDS011;67878;46.242;5.974;2023-07-31T11:00:46;6.60;;;2.10;;
78581;SDS011;67878;46.242;5.974;2023-07-31T11:03:14;10.50;;;4.68;;
78581;SDS011;67878;46.242;5.974;2023-07-31T11:05:54;39.33;;;15.43;;
78581;SDS011;67878;46.242;5.974;2023-07-31T11:08:25;26.83;;;10.27;;
78581;SDS011;67878;46.242;5.974;2023-07-31T11:13:26;42.72;;;17.83;;
78581;SDS011;67878;46.242;5.974;2023-07-31T11:15:51;42.60;;;13.10;;
78581;SDS011;67878;46.242;5.974;2023-07-31T11:18:16;26.65;;;11.32;;
78581;SDS011;67878;46.242;5.974;2023-07-31T11:20:43;22.02;;;8.88;;
78581;SDS011;67878;46.242;5.974;2023-07-31T11:23:09;18.77;;;8.50;;
78581;SDS011;67878;46.242;5.974;2023-07-31T11:25:35;23.73;;;8.35;;
78581;SDS011;67878;46.242;5.974;2023-07-31T11:28:14;21.17;;;6.85;;
78581;SDS011;67878;46.242;5.974;2023-07-31T11:30:41;14.90;;;5.80;;
78581;SDS011;67878;46.242;5.974;2023-07-31T11:33:08;16.20;;;5.13;;
78581;SDS011;67878;46.242;5.974;2023-07-31T11:35:35;16.70;;;5.20;;
78581;SDS011;67878;46.242;5.974;2023-07-31T11:38:06;11.70;;;4.57;;
78581;SDS011;67878;46.242;5.974;2023-07-31T11:40:40;10.52;;;4.50;;
78581;SDS011;67878;46.242;5.974;2023-07-31T11:43:08;10.02;;;4.60;;
78581;SDS011;67878;46.242;5.974;2023-07-31T11:45:34;14.88;;;4.80;;
78581;SDS011;67878;46.242;5.974;2023-07-31T11:48:00;9.07;;;4.03;;
78581;SDS011;67878;46.242;5.974;2023-07-31T11:50:26;8.35;;;3.85;;
78581;SDS011;67878;46.242;5.974;2023-07-31T11:53:07;8.57;;;4.10;;
78581;SDS011;67878;46.242;5.974;2023-07-31T11:55:34;10.95;;;4.28;;
78581;SDS011;67878;46.242;5.974;2023-07-31T11:58:00;13.88;;;4.53;;
78581;SDS011;67878;46.242;5.974;2023-07-31T12:00:25;10.88;;;3.80;;
78581;SDS011;67878;46.242;5.974;2023-07-31T12:02:52;8.65;;;3.58;;
78581;SDS011;67878;46.242;5.974;2023-07-31T12:05:18;8.38;;;3.53;;
78581;SDS011;67878;46.242;5.974;2023-07-31T12:07:47;6.05;;;3.28;;
78581;SDS011;67878;46.242;5.974;2023-07-31T12:13:12;7.88;;;2.90;;
78581;SDS011;67878;46.242;5.974;2023-07-31T12:15:45;7.95;;;3.38;;
78581;SDS011;67878;46.242;5.974;2023-07-31T12:18:12;12.07;;;3.80;;
78581;SDS011;67878;46.242;5.974;2023-07-31T12:23:17;9.25;;;3.17;;
78581;SDS011;67878;46.242;5.974;2023-07-31T12:28:28;6.85;;;2.95;;
78581;SDS011;67878;46.242;5.974;2023-07-31T12:30:56;6.60;;;2.83;;
78581;SDS011;67878;46.242;5.974;2023-07-31T12:33:24;5.72;;;2.83;;
78581;SDS011;67878;46.242;5.974;2023-07-31T12:35:49;7.47;;;2.88;;
78581;SDS011;67878;46.242;5.974;2023-07-31T12:38:14;7.43;;;2.80;;
78581;SDS011;67878;46.242;5.974;2023-07-31T12:40:40;8.23;;;3.30;;
78581;SDS011;67878;46.242;5.974;2023-07-31T12:43:07;6.47;;;2.90;;
78581;SDS011;67878;46.242;5.974;2023-07-31T12:45:33;6.18;;;2.38;;
78581;SDS011;67878;46.242;5.974;2023-07-31T12:47:59;8.88;;;2.63;;
78581;SDS011;67878;46.242;5.974;2023-07-31T12:50:25;8.15;;;3.00;;
78581;SDS011;67878;46.242;5.974;2023-07-31T12:52:51;9.38;;;2.72;;
78581;SDS011;67878;46.242;5.974;2023-07-31T12:55:17;3.88;;;2.25;;
78581;SDS011;67878;46.242;5.974;2023-07-31T12:57:43;6.00;;;2.45;;
78581;SDS011;67878;46.242;5.974;2023-07-31T13:00:09;6.57;;;2.50;;
78581;SDS011;67878;46.242;5.974;2023-07-31T13:02:35;6.18;;;3.10;;
78581;SDS011;67878;46.242;5.974;2023-07-31T13:05:00;5.68;;;2.50;;
78581;SDS011;67878;46.242;5.974;2023-07-31T13:07:26;4.65;;;2.25;;
78581;SDS011;67878;46.242;5.974;2023-07-31T13:09:51;4.65;;;2.35;;
78581;SDS011;67878;46.242;5.974;2023-07-31T13:12:17;5.40;;;2.33;;
78581;SDS011;67878;46.242;5.974;2023-07-31T13:14:42;3.78;;;2.33;;
78581;SDS011;67878;46.242;5.974;2023-07-31T13:17:07;4.10;;;2.55;;
78581;SDS011;67878;46.242;5.974;2023-07-31T13:19:33;7.85;;;3.00;;
78581;SDS011;67878;46.242;5.974;2023-07-31T13:21:58;6.68;;;2.60;;
78581;SDS011;67878;46.242;5.974;2023-07-31T13:24:24;5.72;;;2.33;;
78581;SDS011;67878;46.242;5.974;2023-07-31T13:26:49;6.10;;;2.55;;
78581;SDS011;67878;46.242;5.974;2023-07-31T13:29:14;4.97;;;2.38;;
78581;SDS011;67878;46.242;5.974;2023-07-31T13:31:40;6.13;;;2.72;;
78581;SDS011;67878;46.242;5.974;2023-07-31T13:34:05;4.07;;;2.08;;
78581;SDS011;67878;46.242;5.974;2023-07-31T13:36:30;3.70;;;2.38;;
78581;SDS011;67878;46.242;5.974;2023-07-31T13:38:56;5.35;;;2.13;;
78581;SDS011;67878;46.242;5.974;2023-07-31T13:41:21;4.85;;;2.15;;
78581;SDS011;67878;46.242;5.974;2023-07-31T13:43:47;3.67;;;2.00;;
78581;SDS011;67878;46.242;5.974;2023-07-31T13:46:12;3.03;;;2.15;;
78581;SDS011;67878;46.242;5.974;2023-07-31T13:48:37;6.15;;;2.30;;
78581;SDS011;67878;46.242;5.974;2023-07-31T13:51:03;4.13;;;2.10;;
78581;SDS011;67878;46.242;5.974;2023-07-31T13:53:28;3.55;;;2.08;;
78581;SDS011;67878;46.242;5.974;2023-07-31T13:55:53;5.47;;;2.20;;
78581;SDS011;67878;46.242;5.974;2023-07-31T13:58:20;4.13;;;2.33;;
78581;SDS011;67878;46.242;5.974;2023-07-31T14:00:45;4.00;;;1.90;;
78581;SDS011;67878;46.242;5.974;2023-07-31T14:03:11;4.40;;;2.05;;
78581;SDS011;67878;46.242;5.974;2023-07-31T14:05:36;3.33;;;2.10;;
78581;SDS011;67878;46.242;5.974;2023-07-31T14:08:02;5.45;;;2.58;;
78581;SDS011;67878;46.242;5.974;2023-07-31T14:10:27;4.50;;;1.80;;
78581;SDS011;67878;46.242;5.974;2023-07-31T14:12:52;5.15;;;2.08;;
78581;SDS011;67878;46.242;5.974;2023-07-31T14:15:18;3.42;;;1.90;;
78581;SDS011;67878;46.242;5.974;2023-07-31T14:17:43;4.05;;;1.92;;
78581;SDS011;67878;46.242;5.974;2023-07-31T14:20:09;3.42;;;1.90;;
78581;SDS011;67878;46.242;5.974;2023-07-31T14:22:34;4.45;;;2.05;;
78581;SDS011;67878;46.242;5.974;2023-07-31T14:25:00;3.85;;;2.30;;
78581;SDS011;67878;46.242;5.974;2023-07-31T14:27:26;3.38;;;1.83;;
78581;SDS011;67878;46.242;5.974;2023-07-31T14:29:51;3.70;;;2.03;;
78581;SDS011;67878;46.242;5.974;2023-07-31T14:32:16;5.60;;;2.38;;
78581;SDS011;67878;46.242;5.974;2023-07-31T14:34:42;2.67;;;1.67;;
78581;SDS011;67878;46.242;5.974;2023-07-31T14:37:07;2.97;;;2.00;;
78581;SDS011;67878;46.242;5.974;2023-07-31T14:39:33;2.72;;;1.90;;
78581;SDS011;67878;46.242;5.974;2023-07-31T14:41:58;3.33;;;1.70;;
78581;SDS011;67878;46.242;5.974;2023-07-31T14:44:23;3.22;;;1.92;;
78581;SDS011;67878;46.242;5.974;2023-07-31T14:46:49;3.03;;;1.88;;
78581;SDS011;67878;46.242;5.974;2023-07-31T14:49:14;3.75;;;2.13;;
78581;SDS011;67878;46.242;5.974;2023-07-31T14:51:39;4.07;;;1.90;;
78581;SDS011;67878;46.242;5.974;2023-07-31T14:54:05;3.22;;;2.03;;
78581;SDS011;67878;46.242;5.974;2023-07-31T14:56:30;2.72;;;1.65;;